sensor_id;sensor_type;location;lat;lon;timestamp;P1;durP1;ratioP1;P2;durP2;ratioP2
68234;SDS011;55052;52.056;5.296;2022-11-23T00:00:26;20.63;;;9.07;;
68234;SDS011;55052;52.056;5.296;2022-11-23T00:02:53;18.45;;;9.63;;
68234;SDS011;55052;52.056;5.296;2022-11-23T00:05:21;14.40;;;9.60;;
68234;SDS011;55052;52.056;5.296;2022-11-23T00:07:48;17.60;;;9.98;;
68234;SDS011;55052;52.056;5.296;2022-11-23T00:10:15;17.75;;;9.57;;
68234;SDS011;55052;52.056;5.296;2022-11-23T00:12:43;17.73;;;9.73;;
68234;SDS011;55052;52.056;5.296;2022-11-23T00:15:13;22.58;;;10.75;;
68234;SDS011;55052;52.056;5.296;2022-11-23T00:17:40;20.80;;;10.35;;
68234;SDS011;55052;52.056;5.296;2022-11-23T00:20:07;18.83;;;10.43;;
68234;SDS011;55052;52.056;5.296;2022-11-23T00:22:34;16.33;;;10.85;;
68234;SDS011;55052;52.056;5.296;2022-11-23T00:25:01;20.80;;;10.63;;
68234;SDS011;55052;52.056;5.296;2022-11-23T00:27:28;18.08;;;10.73;;
68234;SDS011;55052;52.056;5.296;2022-11-23T00:29:55;22.83;;;11.65;;
68234;SDS011;55052;52.056;5.296;2022-11-23T00:32:21;20.02;;;10.88;;
68234;SDS011;55052;52.056;5.296;2022-11-23T00:34:48;21.73;;;11.15;;
68234;SDS011;55052;52.056;5.296;2022-11-23T00:37:15;21.92;;;10.55;;
68234;SDS011;55052;52.056;5.296;2022-11-23T00:39:41;19.33;;;10.70;;
68234;SDS011;55052;52.056;5.296;2022-11-23T00:42:08;21.50;;;10.32;;
68234;SDS011;55052;52.056;5.296;2022-11-23T00:44:35;24.67;;;10.95;;
68234;SDS011;55052;52.056;5.296;2022-11-23T00:47:03;18.80;;;9.88;;
68234;SDS011;55052;52.056;5.296;2022-11-23T00:49:32;19.42;;;9.88;;
68234;SDS011;55052;52.056;5.296;2022-11-23T00:52:01;22.25;;;10.00;;
68234;SDS011;55052;52.056;5.296;2022-11-23T00:54:27;19.33;;;10.10;;
68234;SDS011;55052;52.056;5.296;2022-11-23T00:56:54;15.32;;;9.13;;
68234;SDS011;55052;52.056;5.296;2022-11-23T00:59:21;16.50;;;8.68;;
68234;SDS011;55052;52.056;5.296;2022-11-23T01:01:48;16.40;;;9.45;;
68234;SDS011;55052;52.056;5.296;2022-11-23T01:04:14;20.70;;;9.88;;
68234;SDS011;55052;52.056;5.296;2022-11-23T01:06:43;17.17;;;9.20;;
68234;SDS011;55052;52.056;5.296;2022-11-23T01:09:13;17.02;;;9.60;;
68234;SDS011;55052;52.056;5.296;2022-11-23T01:11:43;18.52;;;9.75;;
68234;SDS011;55052;52.056;5.296;2022-11-23T01:14:10;16.73;;;8.93;;
68234;SDS011;55052;52.056;5.296;2022-11-23T01:16:38;20.50;;;8.77;;
68234;SDS011;55052;52.056;5.296;2022-11-23T01:19:07;18.10;;;8.55;;
68234;SDS011;55052;52.056;5.296;2022-11-23T01:24:04;17.48;;;8.15;;
68234;SDS011;55052;52.056;5.296;2022-11-23T01:26:50;15.98;;;8.18;;
68234;SDS011;55052;52.056;5.296;2022-11-23T01:29:18;19.80;;;8.43;;
68234;SDS011;55052;52.056;5.296;2022-11-23T01:31:46;18.00;;;8.65;;
68234;SDS011;55052;52.056;5.296;2022-11-23T01:34:14;16.48;;;8.63;;
68234;SDS011;55052;52.056;5.296;2022-11-23T01:36:41;18.95;;;8.27;;
68234;SDS011;55052;52.056;5.296;2022-11-23T01:39:08;16.75;;;8.13;;
68234;SDS011;55052;52.056;5.296;2022-11-23T01:41:37;17.00;;;8.40;;
68234;SDS011;55052;52.056;5.296;2022-11-23T01:44:25;20.30;;;7.88;;
68234;SDS011;55052;52.056;5.296;2022-11-23T01:46:56;13.68;;;8.00;;
68234;SDS011;55052;52.056;5.296;2022-11-23T01:52:15;13.93;;;7.35;;
68234;SDS011;55052;52.056;5.296;2022-11-23T01:54:49;18.00;;;7.68;;
68234;SDS011;55052;52.056;5.296;2022-11-23T02:00:03;16.73;;;7.83;;
68234;SDS011;55052;52.056;5.296;2022-11-23T02:02:30;16.98;;;7.80;;
68234;SDS011;55052;52.056;5.296;2022-11-23T02:04:59;16.40;;;7.45;;
68234;SDS011;55052;52.056;5.296;2022-11-23T02:07:27;13.57;;;6.75;;
68234;SDS011;55052;52.056;5.296;2022-11-23T02:09:55;13.23;;;7.47;;
68234;SDS011;55052;52.056;5.296;2022-11-23T02:12:22;15.90;;;6.95;;
68234;SDS011;55052;52.056;5.296;2022-11-23T02:14:49;14.60;;;7.32;;
68234;SDS011;55052;52.056;5.296;2022-11-23T02:17:15;13.25;;;6.40;;
68234;SDS011;55052;52.056;5.296;2022-11-23T02:22:25;16.10;;;6.50;;
68234;SDS011;55052;52.056;5.296;2022-11-23T02:24:54;16.40;;;6.35;;
68234;SDS011;55052;52.056;5.296;2022-11-23T02:27:21;14.30;;;6.47;;
68234;SDS011;55052;52.056;5.296;2022-11-23T02:29:48;15.30;;;6.50;;
68234;SDS011;55052;52.056;5.296;2022-11-23T02:32:20;12.65;;;6.07;;
68234;SDS011;55052;52.056;5.296;2022-11-23T02:34:49;13.90;;;6.65;;
68234;SDS011;55052;52.056;5.296;2022-11-23T02:37:16;13.48;;;6.20;;
68234;SDS011;55052;52.056;5.296;2022-11-23T02:39:45;18.08;;;7.82;;
68234;SDS011;55052;52.056;5.296;2022-11-23T02:42:17;14.32;;;7.00;;
68234;SDS011;55052;52.056;5.296;2022-11-23T02:47:29;14.10;;;7.10;;
68234;SDS011;55052;52.056;5.296;2022-11-23T02:49:56;17.48;;;6.93;;
68234;SDS011;55052;52.056;5.296;2022-11-23T02:52:22;15.05;;;6.47;;
68234;SDS011;55052;52.056;5.296;2022-11-23T02:54:49;13.57;;;7.05;;
68234;SDS011;55052;52.056;5.296;2022-11-23T02:57:16;16.00;;;6.60;;
68234;SDS011;55052;52.056;5.296;2022-11-23T02:59:43;17.80;;;7.15;;
68234;SDS011;55052;52.056;5.296;2022-11-23T03:02:09;14.00;;;6.97;;
68234;SDS011;55052;52.056;5.296;2022-11-23T03:04:36;18.42;;;7.65;;
68234;SDS011;55052;52.056;5.296;2022-11-23T03:07:04;13.68;;;6.78;;
68234;SDS011;55052;52.056;5.296;2022-11-23T03:09:31;15.75;;;6.95;;
68234;SDS011;55052;52.056;5.296;2022-11-23T03:11:58;12.75;;;6.60;;
68234;SDS011;55052;52.056;5.296;2022-11-23T03:14:25;11.90;;;6.82;;
68234;SDS011;55052;52.056;5.296;2022-11-23T03:16:52;17.00;;;7.13;;
68234;SDS011;55052;52.056;5.296;2022-11-23T03:19:18;14.98;;;7.25;;
68234;SDS011;55052;52.056;5.296;2022-11-23T03:21:45;14.40;;;7.13;;
68234;SDS011;55052;52.056;5.296;2022-11-23T03:24:12;12.48;;;6.53;;
68234;SDS011;55052;52.056;5.296;2022-11-23T03:26:39;13.10;;;6.57;;
68234;SDS011;55052;52.056;5.296;2022-11-23T03:29:06;15.13;;;6.97;;
68234;SDS011;55052;52.056;5.296;2022-11-23T03:31:34;15.00;;;6.90;;
68234;SDS011;55052;52.056;5.296;2022-11-23T03:34:00;16.92;;;7.28;;
68234;SDS011;55052;52.056;5.296;2022-11-23T03:36:27;15.68;;;6.57;;
68234;SDS011;55052;52.056;5.296;2022-11-23T03:38:54;12.27;;;5.90;;
68234;SDS011;55052;52.056;5.296;2022-11-23T03:41:20;17.23;;;7.07;;
68234;SDS011;55052;52.056;5.296;2022-11-23T03:43:47;10.75;;;6.75;;
68234;SDS011;55052;52.056;5.296;2022-11-23T03:46:14;14.13;;;6.55;;
68234;SDS011;55052;52.056;5.296;2022-11-23T03:48:40;13.35;;;6.70;;
68234;SDS011;55052;52.056;5.296;2022-11-23T03:51:07;11.90;;;6.60;;
68234;SDS011;55052;52.056;5.296;2022-11-23T03:53:34;13.13;;;6.30;;
68234;SDS011;55052;52.056;5.296;2022-11-23T03:56:00;13.65;;;6.30;;
68234;SDS011;55052;52.056;5.296;2022-11-23T03:58:27;11.73;;;5.97;;
68234;SDS011;55052;52.056;5.296;2022-11-23T04:00:54;11.05;;;5.88;;
68234;SDS011;55052;52.056;5.296;2022-11-23T04:03:20;12.38;;;6.13;;
68234;SDS011;55052;52.056;5.296;2022-11-23T04:05:47;13.32;;;5.97;;
68234;SDS011;55052;52.056;5.296;2022-11-23T04:08:14;11.32;;;5.63;;
68234;SDS011;55052;52.056;5.296;2022-11-23T04:10:41;9.57;;;5.00;;
68234;SDS011;55052;52.056;5.296;2022-11-23T04:13:08;9.65;;;5.40;;
68234;SDS011;55052;52.056;5.296;2022-11-23T04:15:35;11.63;;;5.38;;
68234;SDS011;55052;52.056;5.296;2022-11-23T04:18:04;12.40;;;5.13;;
68234;SDS011;55052;52.056;5.296;2022-11-23T04:20:34;9.23;;;5.15;;
68234;SDS011;55052;52.056;5.296;2022-11-23T04:23:03;11.13;;;5.15;;
68234;SDS011;55052;52.056;5.296;2022-11-23T04:25:36;9.90;;;4.57;;
68234;SDS011;55052;52.056;5.296;2022-11-23T04:28:04;14.55;;;5.68;;
68234;SDS011;55052;52.056;5.296;2022-11-23T04:30:34;14.50;;;5.15;;
68234;SDS011;55052;52.056;5.296;2022-11-23T04:33:03;15.63;;;6.13;;
68234;SDS011;55052;52.056;5.296;2022-11-23T04:35:34;11.90;;;5.05;;
68234;SDS011;55052;52.056;5.296;2022-11-23T04:38:03;12.35;;;5.40;;
68234;SDS011;55052;52.056;5.296;2022-11-23T04:40:30;14.57;;;5.65;;
68234;SDS011;55052;52.056;5.296;2022-11-23T04:42:57;15.75;;;5.57;;
68234;SDS011;55052;52.056;5.296;2022-11-23T04:45:27;11.77;;;6.03;;
68234;SDS011;55052;52.056;5.296;2022-11-23T04:47:53;11.30;;;5.50;;
68234;SDS011;55052;52.056;5.296;2022-11-23T04:50:20;14.70;;;5.57;;
68234;SDS011;55052;52.056;5.296;2022-11-23T04:52:47;13.02;;;5.80;;
68234;SDS011;55052;52.056;5.296;2022-11-23T04:55:14;19.42;;;5.63;;
68234;SDS011;55052;52.056;5.296;2022-11-23T04:57:41;14.15;;;5.20;;
68234;SDS011;55052;52.056;5.296;2022-11-23T05:00:08;17.00;;;5.85;;
68234;SDS011;55052;52.056;5.296;2022-11-23T05:02:35;18.13;;;5.05;;
68234;SDS011;55052;52.056;5.296;2022-11-23T05:05:01;14.02;;;5.03;;
68234;SDS011;55052;52.056;5.296;2022-11-23T05:07:28;12.77;;;4.85;;
68234;SDS011;55052;52.056;5.296;2022-11-23T05:09:55;12.25;;;4.85;;
68234;SDS011;55052;52.056;5.296;2022-11-23T05:12:22;9.68;;;4.80;;
68234;SDS011;55052;52.056;5.296;2022-11-23T05:14:48;12.57;;;4.60;;
68234;SDS011;55052;52.056;5.296;2022-11-23T05:17:15;9.48;;;4.25;;
68234;SDS011;55052;52.056;5.296;2022-11-23T05:19:42;10.55;;;4.22;;
68234;SDS011;55052;52.056;5.296;2022-11-23T05:22:10;15.57;;;4.65;;
68234;SDS011;55052;52.056;5.296;2022-11-23T05:24:37;15.38;;;4.40;;
68234;SDS011;55052;52.056;5.296;2022-11-23T05:27:03;12.48;;;4.28;;
68234;SDS011;55052;52.056;5.296;2022-11-23T05:29:33;14.40;;;4.20;;
68234;SDS011;55052;52.056;5.296;2022-11-23T05:32:03;13.00;;;4.57;;
68234;SDS011;55052;52.056;5.296;2022-11-23T05:34:30;12.77;;;4.38;;
68234;SDS011;55052;52.056;5.296;2022-11-23T05:36:57;11.02;;;4.20;;
68234;SDS011;55052;52.056;5.296;2022-11-23T05:39:23;11.32;;;4.47;;
68234;SDS011;55052;52.056;5.296;2022-11-23T05:41:50;13.65;;;4.57;;
68234;SDS011;55052;52.056;5.296;2022-11-23T05:44:17;10.90;;;4.50;;
68234;SDS011;55052;52.056;5.296;2022-11-23T05:46:44;13.32;;;4.55;;
68234;SDS011;55052;52.056;5.296;2022-11-23T05:49:11;16.38;;;4.82;;
68234;SDS011;55052;52.056;5.296;2022-11-23T05:51:37;12.43;;;4.43;;
68234;SDS011;55052;52.056;5.296;2022-11-23T05:54:04;13.82;;;4.65;;
68234;SDS011;55052;52.056;5.296;2022-11-23T05:56:31;9.43;;;4.25;;
68234;SDS011;55052;52.056;5.296;2022-11-23T05:59:04;15.80;;;4.85;;
68234;SDS011;55052;52.056;5.296;2022-11-23T06:01:31;12.10;;;4.70;;
68234;SDS011;55052;52.056;5.296;2022-11-23T06:03:58;12.57;;;4.97;;
68234;SDS011;55052;52.056;5.296;2022-11-23T06:06:25;17.75;;;4.72;;
68234;SDS011;55052;52.056;5.296;2022-11-23T06:08:52;13.23;;;4.20;;
68234;SDS011;55052;52.056;5.296;2022-11-23T06:11:18;14.60;;;4.82;;
68234;SDS011;55052;52.056;5.296;2022-11-23T06:13:46;13.68;;;5.03;;
68234;SDS011;55052;52.056;5.296;2022-11-23T06:16:13;10.25;;;4.13;;
68234;SDS011;55052;52.056;5.296;2022-11-23T06:18:40;15.45;;;4.50;;
68234;SDS011;55052;52.056;5.296;2022-11-23T06:21:07;15.65;;;5.20;;
68234;SDS011;55052;52.056;5.296;2022-11-23T06:23:33;13.32;;;3.85;;
68234;SDS011;55052;52.056;5.296;2022-11-23T06:26:00;13.73;;;4.13;;
68234;SDS011;55052;52.056;5.296;2022-11-23T06:28:27;9.60;;;3.50;;
68234;SDS011;55052;52.056;5.296;2022-11-23T06:30:54;15.32;;;3.90;;
68234;SDS011;55052;52.056;5.296;2022-11-23T06:33:21;12.82;;;3.83;;
68234;SDS011;55052;52.056;5.296;2022-11-23T06:35:51;11.93;;;3.47;;
68234;SDS011;55052;52.056;5.296;2022-11-23T06:38:23;14.85;;;3.15;;
68234;SDS011;55052;52.056;5.296;2022-11-23T06:40:50;10.05;;;3.03;;
68234;SDS011;55052;52.056;5.296;2022-11-23T06:43:17;10.15;;;2.97;;
68234;SDS011;55052;52.056;5.296;2022-11-23T06:45:44;10.27;;;3.28;;
68234;SDS011;55052;52.056;5.296;2022-11-23T06:48:10;14.00;;;3.08;;
68234;SDS011;55052;52.056;5.296;2022-11-23T06:50:37;12.45;;;4.05;;
68234;SDS011;55052;52.056;5.296;2022-11-23T06:53:04;13.65;;;2.80;;
68234;SDS011;55052;52.056;5.296;2022-11-23T06:55:34;11.68;;;3.10;;
68234;SDS011;55052;52.056;5.296;2022-11-23T06:58:03;15.35;;;2.90;;
68234;SDS011;55052;52.056;5.296;2022-11-23T07:00:34;13.95;;;2.75;;
68234;SDS011;55052;52.056;5.296;2022-11-23T07:03:01;13.80;;;2.55;;
68234;SDS011;55052;52.056;5.296;2022-11-23T07:05:28;10.43;;;2.60;;
68234;SDS011;55052;52.056;5.296;2022-11-23T07:07:55;7.03;;;2.30;;
68234;SDS011;55052;52.056;5.296;2022-11-23T07:10:22;10.40;;;2.72;;
68234;SDS011;55052;52.056;5.296;2022-11-23T07:12:50;13.80;;;2.70;;
68234;SDS011;55052;52.056;5.296;2022-11-23T07:15:17;11.43;;;3.30;;
68234;SDS011;55052;52.056;5.296;2022-11-23T07:17:44;11.88;;;2.80;;
68234;SDS011;55052;52.056;5.296;2022-11-23T07:20:11;11.43;;;3.03;;
68234;SDS011;55052;52.056;5.296;2022-11-23T07:22:38;17.27;;;3.50;;
68234;SDS011;55052;52.056;5.296;2022-11-23T07:25:05;12.27;;;2.90;;
68234;SDS011;55052;52.056;5.296;2022-11-23T07:27:32;10.60;;;2.78;;
68234;SDS011;55052;52.056;5.296;2022-11-23T07:29:59;11.18;;;2.97;;
68234;SDS011;55052;52.056;5.296;2022-11-23T07:32:26;11.15;;;2.83;;
68234;SDS011;55052;52.056;5.296;2022-11-23T07:34:52;15.52;;;3.00;;
68234;SDS011;55052;52.056;5.296;2022-11-23T07:37:19;14.73;;;3.85;;
68234;SDS011;55052;52.056;5.296;2022-11-23T07:39:46;10.75;;;2.72;;
68234;SDS011;55052;52.056;5.296;2022-11-23T07:42:28;13.68;;;2.80;;
68234;SDS011;55052;52.056;5.296;2022-11-23T07:45:01;13.25;;;3.05;;
68234;SDS011;55052;52.056;5.296;2022-11-23T07:47:28;18.13;;;3.17;;
68234;SDS011;55052;52.056;5.296;2022-11-23T07:49:55;12.98;;;3.00;;
68234;SDS011;55052;52.056;5.296;2022-11-23T07:52:22;13.52;;;2.83;;
68234;SDS011;55052;52.056;5.296;2022-11-23T07:54:49;18.33;;;3.20;;
68234;SDS011;55052;52.056;5.296;2022-11-23T07:57:16;12.73;;;2.47;;
68234;SDS011;55052;52.056;5.296;2022-11-23T07:59:42;11.40;;;2.50;;
68234;SDS011;55052;52.056;5.296;2022-11-23T08:02:09;14.15;;;3.03;;
68234;SDS011;55052;52.056;5.296;2022-11-23T08:04:39;14.52;;;3.08;;
68234;SDS011;55052;52.056;5.296;2022-11-23T08:07:06;12.63;;;3.22;;
68234;SDS011;55052;52.056;5.296;2022-11-23T08:09:33;18.63;;;3.05;;
68234;SDS011;55052;52.056;5.296;2022-11-23T08:12:00;13.82;;;2.70;;
68234;SDS011;55052;52.056;5.296;2022-11-23T08:14:26;14.25;;;3.05;;
68234;SDS011;55052;52.056;5.296;2022-11-23T08:16:53;11.23;;;2.55;;
68234;SDS011;55052;52.056;5.296;2022-11-23T08:19:20;13.43;;;2.75;;
68234;SDS011;55052;52.056;5.296;2022-11-23T08:21:46;10.48;;;2.80;;
68234;SDS011;55052;52.056;5.296;2022-11-23T08:24:13;14.90;;;2.83;;
68234;SDS011;55052;52.056;5.296;2022-11-23T08:26:40;11.20;;;2.58;;
68234;SDS011;55052;52.056;5.296;2022-11-23T08:29:06;17.42;;;3.10;;
68234;SDS011;55052;52.056;5.296;2022-11-23T08:31:33;14.18;;;2.80;;
68234;SDS011;55052;52.056;5.296;2022-11-23T08:34:00;15.65;;;2.67;;
68234;SDS011;55052;52.056;5.296;2022-11-23T08:36:29;15.13;;;3.38;;
68234;SDS011;55052;52.056;5.296;2022-11-23T08:38:55;12.75;;;2.60;;
68234;SDS011;55052;52.056;5.296;2022-11-23T08:41:22;11.45;;;2.55;;
68234;SDS011;55052;52.056;5.296;2022-11-23T08:43:50;17.30;;;3.10;;
68234;SDS011;55052;52.056;5.296;2022-11-23T08:46:16;17.08;;;3.35;;
68234;SDS011;55052;52.056;5.296;2022-11-23T08:48:43;13.93;;;3.30;;
68234;SDS011;55052;52.056;5.296;2022-11-23T08:51:10;13.65;;;3.05;;
68234;SDS011;55052;52.056;5.296;2022-11-23T08:53:37;11.40;;;2.95;;
68234;SDS011;55052;52.056;5.296;2022-11-23T08:56:04;14.55;;;2.80;;
68234;SDS011;55052;52.056;5.296;2022-11-23T08:58:35;16.27;;;3.30;;
68234;SDS011;55052;52.056;5.296;2022-11-23T09:01:08;14.15;;;3.50;;
68234;SDS011;55052;52.056;5.296;2022-11-23T09:03:40;16.15;;;3.35;;
68234;SDS011;55052;52.056;5.296;2022-11-23T09:06:07;16.38;;;2.88;;
68234;SDS011;55052;52.056;5.296;2022-11-23T09:08:35;9.48;;;2.40;;
68234;SDS011;55052;52.056;5.296;2022-11-23T09:11:06;11.77;;;2.45;;
68234;SDS011;55052;52.056;5.296;2022-11-23T09:13:35;13.63;;;2.50;;
68234;SDS011;55052;52.056;5.296;2022-11-23T09:16:05;12.98;;;2.85;;
68234;SDS011;55052;52.056;5.296;2022-11-23T09:18:32;15.27;;;2.88;;
68234;SDS011;55052;52.056;5.296;2022-11-23T09:21:01;13.07;;;3.17;;
68234;SDS011;55052;52.056;5.296;2022-11-23T09:23:29;13.65;;;3.90;;
68234;SDS011;55052;52.056;5.296;2022-11-23T09:25:57;17.02;;;3.08;;
68234;SDS011;55052;52.056;5.296;2022-11-23T09:28:27;17.60;;;2.80;;
68234;SDS011;55052;52.056;5.296;2022-11-23T09:30:57;8.68;;;2.15;;
68234;SDS011;55052;52.056;5.296;2022-11-23T09:33:28;17.65;;;2.85;;
68234;SDS011;55052;52.056;5.296;2022-11-23T09:35:58;14.25;;;2.60;;
68234;SDS011;55052;52.056;5.296;2022-11-23T09:38:26;9.18;;;2.78;;
68234;SDS011;55052;52.056;5.296;2022-11-23T09:44:07;15.40;;;2.60;;
68234;SDS011;55052;52.056;5.296;2022-11-23T09:50:14;17.85;;;2.95;;
68234;SDS011;55052;52.056;5.296;2022-11-23T09:52:21;11.50;;;2.65;;
68234;SDS011;55052;52.056;5.296;2022-11-23T09:54:50;14.13;;;3.25;;
68234;SDS011;55052;52.056;5.296;2022-11-23T09:57:22;12.57;;;2.63;;
68234;SDS011;55052;52.056;5.296;2022-11-23T09:59:56;13.85;;;2.90;;
68234;SDS011;55052;52.056;5.296;2022-11-23T10:02:38;11.43;;;2.38;;
68234;SDS011;55052;52.056;5.296;2022-11-23T10:05:06;16.38;;;2.47;;
68234;SDS011;55052;52.056;5.296;2022-11-23T10:07:42;22.70;;;4.18;;
68234;SDS011;55052;52.056;5.296;2022-11-23T10:13:21;14.75;;;2.92;;
68234;SDS011;55052;52.056;5.296;2022-11-23T10:18:32;13.60;;;2.85;;
68234;SDS011;55052;52.056;5.296;2022-11-23T10:21:42;15.27;;;2.88;;
68234;SDS011;55052;52.056;5.296;2022-11-23T10:26:35;17.13;;;3.05;;
68234;SDS011;55052;52.056;5.296;2022-11-23T10:29:50;15.07;;;2.25;;
68234;SDS011;55052;52.056;5.296;2022-11-23T10:32:00;10.65;;;2.50;;
68234;SDS011;55052;52.056;5.296;2022-11-23T10:37:13;11.95;;;3.08;;
68234;SDS011;55052;52.056;5.296;2022-11-23T10:39:41;13.40;;;2.55;;
68234;SDS011;55052;52.056;5.296;2022-11-23T10:45:01;16.13;;;3.05;;
68234;SDS011;55052;52.056;5.296;2022-11-23T10:47:40;10.60;;;2.03;;
68234;SDS011;55052;52.056;5.296;2022-11-23T10:50:30;10.15;;;2.83;;
68234;SDS011;55052;52.056;5.296;2022-11-23T10:55:54;16.65;;;3.33;;
68234;SDS011;55052;52.056;5.296;2022-11-23T10:58:25;10.18;;;2.25;;
68234;SDS011;55052;52.056;5.296;2022-11-23T11:01:00;10.60;;;2.70;;
68234;SDS011;55052;52.056;5.296;2022-11-23T11:03:30;8.88;;;2.20;;
68234;SDS011;55052;52.056;5.296;2022-11-23T11:05:59;12.93;;;2.67;;
68234;SDS011;55052;52.056;5.296;2022-11-23T11:08:47;13.10;;;2.50;;
68234;SDS011;55052;52.056;5.296;2022-11-23T11:11:30;12.77;;;2.03;;
68234;SDS011;55052;52.056;5.296;2022-11-23T11:14:03;11.90;;;2.67;;
68234;SDS011;55052;52.056;5.296;2022-11-23T11:16:51;10.93;;;2.60;;
68234;SDS011;55052;52.056;5.296;2022-11-23T11:19:27;9.95;;;2.20;;
68234;SDS011;55052;52.056;5.296;2022-11-23T11:21:56;10.55;;;2.70;;
68234;SDS011;55052;52.056;5.296;2022-11-23T11:24:57;9.70;;;2.13;;
68234;SDS011;55052;52.056;5.296;2022-11-23T11:27:19;14.35;;;2.72;;
68234;SDS011;55052;52.056;5.296;2022-11-23T11:29:52;9.38;;;2.50;;
68234;SDS011;55052;52.056;5.296;2022-11-23T11:37:31;12.32;;;2.42;;
68234;SDS011;55052;52.056;5.296;2022-11-23T11:42:33;8.48;;;2.38;;
68234;SDS011;55052;52.056;5.296;2022-11-23T11:45:05;11.50;;;2.25;;
68234;SDS011;55052;52.056;5.296;2022-11-23T11:47:42;12.23;;;2.65;;
68234;SDS011;55052;52.056;5.296;2022-11-23T11:50:35;10.20;;;2.70;;
68234;SDS011;55052;52.056;5.296;2022-11-23T11:53:14;9.38;;;2.08;;
68234;SDS011;55052;52.056;5.296;2022-11-23T11:55:55;8.30;;;2.30;;
68234;SDS011;55052;52.056;5.296;2022-11-23T11:58:29;11.23;;;2.40;;
68234;SDS011;55052;52.056;5.296;2022-11-23T12:01:12;10.60;;;2.15;;
68234;SDS011;55052;52.056;5.296;2022-11-23T12:03:49;12.07;;;2.38;;
68234;SDS011;55052;52.056;5.296;2022-11-23T12:07:23;9.85;;;2.00;;
68234;SDS011;55052;52.056;5.296;2022-11-23T12:09:29;7.47;;;1.65;;
68234;SDS011;55052;52.056;5.296;2022-11-23T12:12:00;8.40;;;2.30;;
68234;SDS011;55052;52.056;5.296;2022-11-23T12:14:29;7.82;;;2.10;;
68234;SDS011;55052;52.056;5.296;2022-11-23T12:25:28;9.48;;;2.22;;
68234;SDS011;55052;52.056;5.296;2022-11-23T12:31:13;8.90;;;2.30;;
68234;SDS011;55052;52.056;5.296;2022-11-23T12:44:55;6.63;;;2.33;;
68234;SDS011;55052;52.056;5.296;2022-11-23T12:50:28;11.85;;;1.92;;
68234;SDS011;55052;52.056;5.296;2022-11-23T13:00:48;8.18;;;1.80;;
68234;SDS011;55052;52.056;5.296;2022-11-23T13:09:15;7.15;;;1.63;;
68234;SDS011;55052;52.056;5.296;2022-11-23T13:17:43;6.30;;;1.85;;
68234;SDS011;55052;52.056;5.296;2022-11-23T13:23:23;7.43;;;1.70;;
68234;SDS011;55052;52.056;5.296;2022-11-23T13:28:41;4.97;;;1.50;;
68234;SDS011;55052;52.056;5.296;2022-11-23T13:33:43;6.10;;;1.80;;
68234;SDS011;55052;52.056;5.296;2022-11-23T13:36:12;5.40;;;1.50;;
68234;SDS011;55052;52.056;5.296;2022-11-23T13:42:13;9.25;;;2.20;;
68234;SDS011;55052;52.056;5.296;2022-11-23T13:44:40;11.13;;;2.15;;
68234;SDS011;55052;52.056;5.296;2022-11-23T13:49:51;6.35;;;1.48;;
68234;SDS011;55052;52.056;5.296;2022-11-23T13:52:33;10.43;;;1.65;;
68234;SDS011;55052;52.056;5.296;2022-11-23T13:55:14;5.40;;;1.63;;
68234;SDS011;55052;52.056;5.296;2022-11-23T14:00:49;4.90;;;1.67;;
68234;SDS011;55052;52.056;5.296;2022-11-23T14:06:26;8.25;;;1.55;;
68234;SDS011;55052;52.056;5.296;2022-11-23T14:14:23;7.03;;;1.70;;
68234;SDS011;55052;52.056;5.296;2022-11-23T14:24:57;7.22;;;1.48;;
68234;SDS011;55052;52.056;5.296;2022-11-23T14:30:39;4.88;;;1.65;;
68234;SDS011;55052;52.056;5.296;2022-11-23T14:33:17;4.70;;;1.80;;
68234;SDS011;55052;52.056;5.296;2022-11-23T14:41:35;5.85;;;1.67;;
68234;SDS011;55052;52.056;5.296;2022-11-23T14:44:02;6.53;;;1.83;;
68234;SDS011;55052;52.056;5.296;2022-11-23T14:46:31;4.65;;;1.70;;
68234;SDS011;55052;52.056;5.296;2022-11-23T14:49:02;7.05;;;2.00;;
68234;SDS011;55052;52.056;5.296;2022-11-23T14:51:31;5.97;;;1.50;;
68234;SDS011;55052;52.056;5.296;2022-11-23T14:54:00;4.15;;;1.40;;
68234;SDS011;55052;52.056;5.296;2022-11-23T14:59:09;5.20;;;1.50;;
68234;SDS011;55052;52.056;5.296;2022-11-23T15:04:55;6.55;;;1.80;;
68234;SDS011;55052;52.056;5.296;2022-11-23T15:07:46;7.57;;;1.50;;
68234;SDS011;55052;52.056;5.296;2022-11-23T15:13:16;6.75;;;1.90;;
68234;SDS011;55052;52.056;5.296;2022-11-23T15:15:46;5.05;;;1.98;;
68234;SDS011;55052;52.056;5.296;2022-11-23T15:21:01;7.15;;;1.85;;
68234;SDS011;55052;52.056;5.296;2022-11-23T15:23:53;7.55;;;2.00;;
68234;SDS011;55052;52.056;5.296;2022-11-23T15:26:25;3.50;;;1.60;;
68234;SDS011;55052;52.056;5.296;2022-11-23T15:32:01;5.88;;;1.95;;
68234;SDS011;55052;52.056;5.296;2022-11-23T15:34:57;4.65;;;1.60;;
68234;SDS011;55052;52.056;5.296;2022-11-23T15:37:29;5.38;;;1.70;;
68234;SDS011;55052;52.056;5.296;2022-11-23T15:39:57;5.72;;;2.10;;
68234;SDS011;55052;52.056;5.296;2022-11-23T15:42:25;7.63;;;2.03;;
68234;SDS011;55052;52.056;5.296;2022-11-23T15:44:53;7.18;;;2.38;;
68234;SDS011;55052;52.056;5.296;2022-11-23T15:47:22;4.72;;;1.90;;
68234;SDS011;55052;52.056;5.296;2022-11-23T15:49:55;5.25;;;1.85;;
68234;SDS011;55052;52.056;5.296;2022-11-23T15:52:32;5.40;;;1.90;;
68234;SDS011;55052;52.056;5.296;2022-11-23T15:55:06;4.10;;;1.88;;
68234;SDS011;55052;52.056;5.296;2022-11-23T15:57:37;3.83;;;1.83;;
68234;SDS011;55052;52.056;5.296;2022-11-23T16:00:06;6.70;;;2.08;;
68234;SDS011;55052;52.056;5.296;2022-11-23T16:02:35;5.00;;;2.03;;
68234;SDS011;55052;52.056;5.296;2022-11-23T16:05:10;5.25;;;1.85;;
68234;SDS011;55052;52.056;5.296;2022-11-23T16:07:57;7.10;;;2.10;;
68234;SDS011;55052;52.056;5.296;2022-11-23T16:10:26;5.20;;;1.90;;
68234;SDS011;55052;52.056;5.296;2022-11-23T16:12:57;5.30;;;2.00;;
68234;SDS011;55052;52.056;5.296;2022-11-23T16:17:58;8.98;;;2.38;;
68234;SDS011;55052;52.056;5.296;2022-11-23T16:20:25;4.55;;;2.15;;
68234;SDS011;55052;52.056;5.296;2022-11-23T16:22:53;7.25;;;2.20;;
68234;SDS011;55052;52.056;5.296;2022-11-23T16:25:28;7.28;;;2.40;;
68234;SDS011;55052;52.056;5.296;2022-11-23T16:28:13;5.47;;;2.15;;
68234;SDS011;55052;52.056;5.296;2022-11-23T16:30:44;8.13;;;2.90;;
68234;SDS011;55052;52.056;5.296;2022-11-23T16:33:12;7.53;;;2.40;;
68234;SDS011;55052;52.056;5.296;2022-11-23T16:35:43;5.95;;;2.30;;
68234;SDS011;55052;52.056;5.296;2022-11-23T16:38:11;6.28;;;3.13;;
68234;SDS011;55052;52.056;5.296;2022-11-23T16:40:38;4.38;;;2.05;;
68234;SDS011;55052;52.056;5.296;2022-11-23T16:43:05;5.20;;;2.35;;
68234;SDS011;55052;52.056;5.296;2022-11-23T16:45:32;4.43;;;2.50;;
68234;SDS011;55052;52.056;5.296;2022-11-23T16:48:00;7.00;;;2.58;;
68234;SDS011;55052;52.056;5.296;2022-11-23T16:50:28;6.80;;;2.78;;
68234;SDS011;55052;52.056;5.296;2022-11-23T16:53:00;7.38;;;2.88;;
68234;SDS011;55052;52.056;5.296;2022-11-23T16:56:01;5.63;;;2.80;;
68234;SDS011;55052;52.056;5.296;2022-11-23T16:58:29;10.10;;;2.95;;
68234;SDS011;55052;52.056;5.296;2022-11-23T17:01:00;7.47;;;3.17;;
68234;SDS011;55052;52.056;5.296;2022-11-23T17:03:27;8.23;;;3.42;;
68234;SDS011;55052;52.056;5.296;2022-11-23T17:05:54;5.38;;;2.90;;
68234;SDS011;55052;52.056;5.296;2022-11-23T17:08:21;8.30;;;3.83;;
68234;SDS011;55052;52.056;5.296;2022-11-23T17:10:49;7.22;;;3.90;;
68234;SDS011;55052;52.056;5.296;2022-11-23T17:13:26;7.95;;;3.63;;
68234;SDS011;55052;52.056;5.296;2022-11-23T17:15:54;8.25;;;4.15;;
68234;SDS011;55052;52.056;5.296;2022-11-23T17:18:21;7.35;;;3.72;;
68234;SDS011;55052;52.056;5.296;2022-11-23T17:20:48;7.05;;;3.88;;
68234;SDS011;55052;52.056;5.296;2022-11-23T17:23:14;10.60;;;4.10;;